^^
Station Historical Data
Daily Summary for March 18, 2017 Units:  English    Metric   Both
« Previous Day
Next Day »
Daily Weekly Monthly Yearly Custom
  High: Low: Average:
Temperature: 36.8 °F 26.0 °F 32.8 °F
Dew Point: 31.4 °F 13.3 °F 22.8 °F
Humidity: 90% 45% 68%
Wind Speed: 2.0mph 0.0mph 0.4mph
Wind Gust: 14.0mph - -
Wind- - East
Pressure: 30.26 in 30.17 in -
Precipitation: 0.03 in    
Historical Graphs
 
 
Tabular Data for March 18, 2017
Time Temperature Dew Point Pressure Wind Wind Speed Wind Gust Humidity Rainfall Rate (Hourly) Conditions
00:00 34.4 °F 17.6 °F 30.26 in SSW 1.0 mph 4.0 mph 50% 0.00 in CLR
00:15 34.8 °F 17.6 °F 30.26 in Calm   2.0 mph 49% 0.00 in CLR
00:30 34.6 °F 16.9 °F 30.26 in Calm   2.0 mph 48% 0.00 in CLR
00:45 33.3 °F 17.5 °F 30.26 in Calm   1.0 mph 52% 0.00 in CLR
01:00 33.4 °F 17.7 °F 30.25 in Calm     52% 0.00 in CLR
02:15 30.6 °F 17.6 °F 30.25 in Calm     58% 0.00 in CLR
02:30 31.1 °F 18.0 °F 30.25 in Calm   1.0 mph 58% 0.00 in CLR
02:45 29.7 °F 17.9 °F 30.24 in Calm   1.0 mph 61% 0.00 in CLR
03:00 30.7 °F 17.3 °F 30.24 in Calm   1.0 mph 57% 0.00 in CLR
03:15 30.1 °F 17.5 °F 30.24 in Calm   1.0 mph 59% 0.00 in CLR
03:30 30.3 °F 17.3 °F 30.24 in NE 1.0 mph 2.0 mph 58% 0.00 in CLR
03:45 29.4 °F 16.8 °F 30.24 in Calm   2.0 mph 59% 0.00 in CLR
04:00 29.2 °F 17.0 °F 30.23 in Calm   1.0 mph 60% 0.00 in CLR
04:15 28.0 °F 17.0 °F 30.23 in Calm     63% 0.00 in CLR
04:30 27.9 °F 16.9 °F 30.23 in Calm     63% 0.00 in CLR
04:45 27.8 °F 16.8 °F 30.23 in Calm     63% 0.00 in CLR
05:00 26.0 °F 16.2 °F 30.23 in Calm     66% 0.00 in CLR
05:15 26.2 °F 15.7 °F 30.22 in Calm   1.0 mph 64% 0.00 in CLR
05:30 27.1 °F 16.2 °F 30.23 in Calm   1.0 mph 63% 0.00 in CLR
06:00 26.3 °F 15.4 °F 30.24 in Calm     63% 0.00 in CLR
06:15 26.6 °F 16.4 °F 30.23 in Calm     65% 0.00 in CLR
06:30 27.1 °F 15.4 °F 30.23 in Calm   2.0 mph 61% 0.00 in CLR
06:45 28.6 °F 15.3 °F 30.23 in Calm   1.0 mph 57% 0.00 in CLR
07:00 29.5 °F 14.9 °F 30.23 in Calm   1.0 mph 54% 0.00 in CLR
07:15 29.4 °F 15.6 °F 30.25 in Calm   1.0 mph 56% 0.00 in CLR
07:30 29.1 °F 15.8 °F 30.25 in Calm   1.0 mph 57% 0.00 in CLR
07:45 29.8 °F 15.2 °F 30.25 in Calm   1.0 mph 54% 0.00 in CLR
08:00 30.6 °F 14.1 °F 30.25 in Calm   1.0 mph 50% 0.00 in CLR
08:15 31.1 °F 13.7 °F 30.25 in Calm   2.0 mph 48% 0.00 in BKN
08:30 31.7 °F 13.3 °F 30.25 in Calm   5.0 mph 46% 0.00 in BKN
08:45 32.1 °F 13.7 °F 30.25 in ESE 1.0 mph 6.0 mph 46% 0.00 in BKN
09:00 32.5 °F 13.5 °F 30.26 in Calm   4.0 mph 45% 0.00 in BKN
09:15 32.7 °F 14.2 °F 30.25 in Calm   3.0 mph 46% 0.00 in BKN
09:30 33.3 °F 14.7 °F 30.25 in NNE 1.0 mph 4.0 mph 46% 0.00 in BKN
10:00 33.1 °F 16.0 °F 30.25 in NNE 1.0 mph 9.0 mph 49% 0.00 in BKN
10:15 33.3 °F 16.6 °F 30.25 in North 1.0 mph 6.0 mph 50% 0.00 in BKN
10:30 33.7 °F 17.5 °F 30.25 in East 1.0 mph 6.0 mph 51% 0.00 in BKN
10:45 33.8 °F 17.6 °F 30.24 in ENE 1.0 mph 9.0 mph 51% 0.00 in BKN
11:00 34.3 °F 18.9 °F 30.24 in NNE 1.0 mph 6.0 mph 53% 0.00 in BKN
11:15 34.9 °F 19.0 °F 30.24 in NE 2.0 mph 10.0 mph 52% 0.00 in BKN
11:30 35.1 °F 19.7 °F 30.23 in NE 1.0 mph 10.0 mph 53% 0.00 in BKN
11:45 35.7 °F 20.7 °F 30.22 in NE 2.0 mph 6.0 mph 54% 0.00 in BKN
12:00 35.6 °F 21.4 °F 30.22 in ENE 1.0 mph 7.0 mph 56% 0.00 in BKN
12:15 35.6 °F 22.3 °F 30.21 in Calm   6.0 mph 58% 0.00 in BKN
12:30 35.7 °F 22.4 °F 30.21 in ENE 1.0 mph 7.0 mph 58% 0.00 in BKN
12:45 36.5 °F 23.5 °F 30.22 in Calm   3.0 mph 59% 0.00 in BKN
13:00 36.8 °F 24.2 °F 30.21 in NE 1.0 mph 6.0 mph 60% 0.00 in BKN
13:15 36.2 °F 24.8 °F 30.21 in ENE 2.0 mph 10.0 mph 63% 0.00 in -SN
13:30 35.8 °F 25.5 °F 30.20 in ESE 2.0 mph 8.0 mph 66% 0.00 in -SN
13:45 35.7 °F 26.2 °F 30.19 in ESE 1.0 mph 7.0 mph 68% 0.00 in -SN
14:00 35.3 °F 27.8 °F 30.19 in NNE 1.0 mph 9.0 mph 74% 0.00 in -SN
14:15 35.2 °F 28.4 °F 30.19 in NE 1.0 mph 9.0 mph 76% 0.00 in -SN
14:30 35.3 °F 29.1 °F 30.18 in ENE 1.0 mph 8.0 mph 78% 0.00 in -SN
14:45 34.9 °F 29.4 °F 30.18 in Calm   9.0 mph 80% 0.00 in -SN
15:00 34.7 °F 29.8 °F 30.18 in Calm   6.0 mph 82% 0.00 in -SN
15:15 34.3 °F 30.5 °F 30.18 in Calm   5.0 mph 86% 0.00 in -SN
15:30 33.9 °F 30.5 °F 30.19 in Calm   3.0 mph 87% 0.00 in -SN
15:45 33.9 °F 31.0 °F 30.19 in Calm   3.0 mph 89% 0.00 in -SN
16:00 33.9 °F 31.0 °F 30.18 in NW 1.0 mph 5.0 mph 89% 0.01 in -SN
16:15 33.8 °F 31.2 °F 30.18 in ENE 1.0 mph 6.0 mph 90% 0.00 in -SN
16:30 33.8 °F 31.2 °F 30.18 in ENE 1.0 mph 5.0 mph 90% 0.01 in -SN
16:45 33.9 °F 31.3 °F 30.17 in NE 1.0 mph 6.0 mph 90% 0.00 in -SN
17:00 34.0 °F 31.4 °F 30.17 in Calm   5.0 mph 90% 0.00 in -SN
17:15 33.7 °F 30.8 °F 30.18 in North 1.0 mph 6.0 mph 89% 0.00 in -SN
17:30 33.4 °F 30.8 °F 30.17 in Calm   4.0 mph 90% 0.00 in -SN
17:45 33.5 °F 30.9 °F 30.20 in Calm   3.0 mph 90% 0.00 in -SN
18:00 33.6 °F 30.7 °F 30.21 in Calm   7.0 mph 89% 0.00 in -SN
18:15 33.6 °F 30.4 °F 30.21 in Calm   2.0 mph 88% 0.01 in OVC
18:30 33.4 °F 29.9 °F 30.21 in NE 2.0 mph 8.0 mph 87% 0.00 in OVC
18:45 33.2 °F 30.0 °F 30.20 in Calm   2.0 mph 88% 0.00 in OVC
19:00 33.0 °F 29.8 °F 30.21 in Calm   3.0 mph 88% 0.00 in OVC
19:15 33.1 °F 29.7 °F 30.20 in Calm   3.0 mph 87% 0.00 in -SN
19:30 33.2 °F 29.5 °F 30.20 in Calm   4.0 mph 86% 0.00 in -SN
19:45 33.5 °F 29.4 °F 30.20 in Calm   4.0 mph 85% 0.00 in -SN
20:00 33.9 °F 29.3 °F 30.21 in East 1.0 mph 5.0 mph 83% 0.00 in -SN
20:15 34.2 °F 29.6 °F 30.21 in Calm   9.0 mph 83% 0.00 in -SN
20:30 34.3 °F 29.7 °F 30.21 in ENE 1.0 mph 14.0 mph 83% 0.00 in -SN
20:45 34.5 °F 29.9 °F 30.21 in Calm   7.0 mph 83% 0.00 in -SN
21:00 34.7 °F 29.5 °F 30.20 in Calm   10.0 mph 81% 0.00 in -SN
21:15 34.8 °F 29.0 °F 30.19 in NW 1.0 mph 12.0 mph 79% 0.00 in OVC
21:30 34.8 °F 28.0 °F 30.19 in East 1.0 mph 8.0 mph 76% 0.00 in OVC
21:45 34.9 °F 27.5 °F 30.19 in NNW 1.0 mph 9.0 mph 74% 0.00 in OVC
22:00 34.9 °F 27.1 °F 30.19 in Calm   7.0 mph 73% 0.00 in OVC
22:15 34.8 °F 27.0 °F 30.20 in Calm   6.0 mph 73% 0.00 in BKN
22:30 35.0 °F 26.5 °F 30.19 in Calm   6.0 mph 71% 0.00 in BKN
22:45 34.9 °F 26.8 °F 30.19 in Calm   6.0 mph 72% 0.00 in BKN
23:00 34.8 °F 26.4 °F 30.19 in ENE 1.0 mph 7.0 mph 71% 0.00 in BKN
23:15 34.7 °F 26.3 °F 30.19 in Calm   6.0 mph 71% 0.00 in BKN
23:30 34.7 °F 26.6 °F 30.20 in Calm   6.0 mph 72% 0.00 in BKN
23:45 34.5 °F 26.7 °F 30.20 in Calm   2.0 mph 73% 0.00 in BKN
TarryTown NY Weather
Compliments of Weather Underground - 1.5 mb